EDDB

Berlin/Schönefeld International Airport

Airport
ICAO code
EDDB
IATA Code
BER
Summary
ICAO Region
EUR
ICAO Territory
Location

Schönefeld, Brandenburg

Serving
Berlin
Elevation
154 ft
Coordinates
52° 22' 36" N , 13° 30' 36" E
KCC
Metar
Observation
EDDB 271350Z AUTO 04010KT 360V060 9999 -RADZ OVC013 03/01 Q1024 BECMG BKN015
Station
Berlin-Schoenefeld
Date/Time
2023-01-27 13:50:00
Wind direction
40°
Wind speed
10 kts
Lowest cloud amount
overcast
Temperature
3°C
Dew point
1°C
Humidity
86%
QNH
1024 hPa
Weather condition
drizzle

Description

International airport serving Berlin.

Climatology

Temperate Marine climate/Oceanic climate (Köppen climate classification Cfb) - Moderately cool summer and comparatively warm winter.

Runways

Designator Length Width Surface Rops
07L/25R 2710 45 CON Yes/Yes
07R/25L 3000 45 ASP Yes/Yes

Airport map

Aerial View

SKYbrary Partners:

Safety knowledge contributed by: